Time;durP1;ratioP1;P1;durP2;ratioP2;P2;SDS_P1;SDS_P2;PMS_P1;PMS_P2;Temp;Humidity;BMP_temperature;BMP_pressure;BME280_temperature;BME280_humidity;BME280_pressure;Samples;Min_cycle;Max_cycle;Signal;HPM_P1;HPM_P2
2023/08/23 00:01:12;;;;;;;6.95;5.28;;;;;;;;;;10372330;27;20075;-60
2023/08/23 00:06:21;;;;;;;7.15;5.78;;;;;;;;;;10357895;28;20547;-61
2023/08/23 00:11:19;;;;;;;6.40;5.90;;;;;;;;;;10371979;28;20071;-61
2023/08/23 00:16:19;;;;;;;9.57;6.10;;;;;;;;;;10371140;28;20087;-61
2023/08/23 00:21:17;;;;;;;6.80;6.03;;;;;;;;;;10372343;28;20063;-61
2023/08/23 00:26:15;;;;;;;7.03;6.32;;;;;;;;;;10371752;28;20071;-61
2023/08/23 00:31:13;;;;;;;11.82;6.70;;;;;;;;;;10370487;28;20076;-62
2023/08/23 00:36:13;;;;;;;8.90;6.45;;;;;;;;;;10367833;28;20071;-61
2023/08/23 00:41:12;;;;;;;11.20;6.65;;;;;;;;;;10371112;28;20456;-61
2023/08/23 00:46:10;;;;;;;6.50;5.90;;;;;;;;;;10369696;28;20547;-62
2023/08/23 00:51:09;;;;;;;7.32;6.65;;;;;;;;;;10370033;28;20067;-61
2023/08/23 00:56:09;;;;;;;8.05;5.90;;;;;;;;;;10370635;28;20072;-61
2023/08/23 01:01:07;;;;;;;10.40;6.30;;;;;;;;;;10370175;28;20078;-62
2023/08/23 01:06:20;;;;;;;9.40;6.32;;;;;;;;;;10369388;28;20135;-62
2023/08/23 01:11:23;;;;;;;8.10;5.72;;;;;;;;;;10356587;28;20044;-62
2023/08/23 01:16:22;;;;;;;6.93;6.22;;;;;;;;;;10371282;28;20485;-62
2023/08/23 01:21:24;;;;;;;11.07;6.32;;;;;;;;;;10356329;28;20087;-62
2023/08/23 01:26:23;;;;;;;9.35;5.78;;;;;;;;;;10370733;28;20107;-62
2023/08/23 01:31:24;;;;;;;6.57;5.97;;;;;;;;;;10373746;28;20068;-62
2023/08/23 01:36:23;;;;;;;7.53;6.82;;;;;;;;;;10372088;28;20090;-61
2023/08/23 01:41:24;;;;;;;10.93;6.88;;;;;;;;;;10370903;28;20071;-61
2023/08/23 01:46:22;;;;;;;7.53;6.82;;;;;;;;;;10369446;28;20067;-60
2023/08/23 01:51:20;;;;;;;9.75;7.10;;;;;;;;;;10378129;28;20083;-60
2023/08/23 01:56:19;;;;;;;9.10;7.15;;;;;;;;;;10380689;28;20067;-61
2023/08/23 02:01:19;;;;;;;7.82;5.63;;;;;;;;;;10365259;28;20086;-61
2023/08/23 02:06:17;;;;;;;8.50;6.18;;;;;;;;;;10374846;28;20066;-61
2023/08/23 02:11:15;;;;;;;8.13;6.28;;;;;;;;;;10377043;28;20516;-61
2023/08/23 02:16:13;;;;;;;7.93;6.32;;;;;;;;;;10376024;28;20082;-60
2023/08/23 02:21:13;;;;;;;9.88;6.40;;;;;;;;;;10374742;28;20075;-61
2023/08/23 02:26:11;;;;;;;6.68;6.07;;;;;;;;;;10373967;28;20092;-60
2023/08/23 02:31:09;;;;;;;6.93;6.13;;;;;;;;;;10360269;28;20077;-60
2023/08/23 02:36:08;;;;;;;8.65;7.25;;;;;;;;;;10376723;28;20067;-61
2023/08/23 02:41:08;;;;;;;7.20;6.32;;;;;;;;;;10374084;28;20090;-61
2023/08/23 02:46:08;;;;;;;10.18;7.38;;;;;;;;;;10376040;28;20060;-61
2023/08/23 02:51:06;;;;;;;7.60;6.85;;;;;;;;;;10375592;28;20073;-61
2023/08/23 02:56:05;;;;;;;7.22;6.43;;;;;;;;;;10375439;27;20064;-61
2023/08/23 03:01:05;;;;;;;7.95;6.82;;;;;;;;;;10361173;28;20458;-61
2023/08/23 03:06:04;;;;;;;7.40;6.22;;;;;;;;;;10373396;28;20528;-61
2023/08/23 03:11:03;;;;;;;9.20;6.63;;;;;;;;;;10376367;28;20498;-61
2023/08/23 03:16:01;;;;;;;9.35;7.25;;;;;;;;;;10375355;27;20076;-61
2023/08/23 03:21:01;;;;;;;9.35;7.45;;;;;;;;;;10363019;28;20082;-61
2023/08/23 03:26:00;;;;;;;13.20;6.80;;;;;;;;;;10373932;28;20524;-60
2023/08/23 03:31:02;;;;;;;10.75;6.90;;;;;;;;;;10369614;28;20534;-61
2023/08/23 03:36:03;;;;;;;8.82;8.02;;;;;;;;;;10355505;28;20470;-61
2023/08/23 03:41:02;;;;;;;9.98;7.25;;;;;;;;;;10370891;28;20078;-61
2023/08/23 03:46:01;;;;;;;13.63;7.93;;;;;;;;;;10374215;28;20051;-61
2023/08/23 03:50:59;;;;;;;9.38;7.40;;;;;;;;;;10355448;28;20063;-61
2023/08/23 03:55:59;;;;;;;9.40;7.35;;;;;;;;;;10352709;28;20067;-61
2023/08/23 04:00:59;;;;;;;13.88;8.05;;;;;;;;;;10361094;28;20517;-61
2023/08/23 04:05:58;;;;;;;12.60;7.18;;;;;;;;;;10371560;28;20083;-61
2023/08/23 04:10:59;;;;;;;8.98;6.28;;;;;;;;;;10370354;28;20070;-61
2023/08/23 04:15:57;;;;;;;7.65;6.30;;;;;;;;;;10371784;28;20075;-61
2023/08/23 04:20:58;;;;;;;14.43;7.35;;;;;;;;;;10370656;28;20075;-61
2023/08/23 04:25:59;;;;;;;7.85;6.97;;;;;;;;;;10373378;28;20093;-61
2023/08/23 04:31:00;;;;;;;11.45;6.65;;;;;;;;;;10366719;28;20501;-61
2023/08/23 04:36:05;;;;;;;7.15;6.43;;;;;;;;;;10356405;28;20106;-61
2023/08/23 04:41:05;;;;;;;24.10;8.93;;;;;;;;;;10368990;28;20074;-61
2023/08/23 04:46:05;;;;;;;10.68;8.32;;;;;;;;;;10369918;28;20075;-60
2023/08/23 04:51:04;;;;;;;13.38;8.23;;;;;;;;;;10377389;28;20601;-60
2023/08/23 04:56:03;;;;;;;17.88;8.43;;;;;;;;;;10367931;28;20062;-62
2023/08/23 05:01:06;;;;;;;12.52;7.45;;;;;;;;;;10367505;28;20071;-61
2023/08/23 05:06:08;;;;;;;16.02;8.18;;;;;;;;;;10354259;28;20090;-61
2023/08/23 05:11:06;;;;;;;13.00;8.63;;;;;;;;;;10367667;28;20059;-61
2023/08/23 05:16:08;;;;;;;11.20;8.18;;;;;;;;;;10365911;28;20071;-60
2023/08/23 05:21:09;;;;;;;17.70;9.40;;;;;;;;;;10349699;28;20082;-61
2023/08/23 05:26:07;;;;;;;19.25;8.32;;;;;;;;;;10378292;28;20076;-61
2023/08/23 05:31:08;;;;;;;19.40;10.15;;;;;;;;;;10374785;28;20060;-61
2023/08/23 05:36:06;;;;;;;21.40;10.55;;;;;;;;;;10370247;28;20083;-61
2023/08/23 05:41:05;;;;;;;17.77;10.75;;;;;;;;;;10356451;28;20079;-61
2023/08/23 05:46:03;;;;;;;17.50;10.30;;;;;;;;;;10380567;28;20067;-61
2023/08/23 05:51:03;;;;;;;37.67;17.42;;;;;;;;;;10383224;28;20082;-61
2023/08/23 05:56:01;;;;;;;22.83;11.68;;;;;;;;;;10378843;28;20075;-61
2023/08/23 06:00:59;;;;;;;21.08;11.77;;;;;;;;;;10375060;28;20078;-61
2023/08/23 06:05:58;;;;;;;149.60;136.55;;;;;;;;;;10376712;28;20458;-61
2023/08/23 06:10:57;;;;;;;22.40;13.05;;;;;;;;;;10368809;28;20139;-61
2023/08/23 06:15:55;;;;;;;20.85;11.15;;;;;;;;;;10365086;28;20078;-62
2023/08/23 06:20:54;;;;;;;17.13;11.23;;;;;;;;;;10364837;28;20071;-60
2023/08/23 06:25:59;;;;;;;38.38;31.55;;;;;;;;;;10371268;28;20075;-60
2023/08/23 06:30:57;;;;;;;25.25;11.60;;;;;;;;;;10357490;28;20083;-60
2023/08/23 06:35:55;;;;;;;22.13;11.77;;;;;;;;;;10362573;28;20059;-60
2023/08/23 06:40:54;;;;;;;16.92;11.05;;;;;;;;;;10364605;27;20455;-62
2023/08/23 06:45:53;;;;;;;19.05;10.82;;;;;;;;;;10373993;28;20165;-62
2023/08/23 06:50:51;;;;;;;21.75;9.52;;;;;;;;;;10371699;28;20068;-61
2023/08/23 06:55:49;;;;;;;7.03;6.35;;;;;;;;;;10364909;28;20075;-61
2023/08/23 07:00:48;;;;;;;17.88;10.30;;;;;;;;;;10361753;28;20804;-61
2023/08/23 07:05:47;;;;;;;13.45;9.52;;;;;;;;;;10366446;28;20074;-62
2023/08/23 07:10:45;;;;;;;15.73;9.15;;;;;;;;;;10355514;28;20079;-62
2023/08/23 07:15:44;;;;;;;19.70;8.52;;;;;;;;;;10363363;28;20067;-62
2023/08/23 07:20:42;;;;;;;12.13;8.45;;;;;;;;;;10362672;28;20083;-63
2023/08/23 07:25:42;;;;;;;12.32;7.97;;;;;;;;;;10367452;28;20087;-63
2023/08/23 07:30:45;;;;;;;22.08;7.82;;;;;;;;;;10367693;28;20079;-61
2023/08/23 07:35:43;;;;;;;10.53;9.47;;;;;;;;;;10369356;28;20063;-62
2023/08/23 07:40:42;;;;;;;12.43;7.50;;;;;;;;;;10366934;28;20763;-62
2023/08/23 07:45:42;;;;;;;12.82;7.28;;;;;;;;;;10368765;28;20548;-63
2023/08/23 07:50:40;;;;;;;11.43;9.13;;;;;;;;;;10371268;28;20090;-62
2023/08/23 07:55:38;;;;;;;13.75;8.57;;;;;;;;;;10373174;28;20465;-62
2023/08/23 08:00:38;;;;;;;13.32;8.68;;;;;;;;;;10369116;28;20068;-61
2023/08/23 08:05:41;;;;;;;12.18;7.13;;;;;;;;;;10370637;28;20532;-63
2023/08/23 08:10:43;;;;;;;8.90;8.05;;;;;;;;;;10370690;28;20087;-62
2023/08/23 08:15:42;;;;;;;13.52;8.15;;;;;;;;;;10371578;28;20078;-63
2023/08/23 08:20:41;;;;;;;9.00;8.13;;;;;;;;;;10372821;28;20552;-61
2023/08/23 08:25:41;;;;;;;13.82;7.68;;;;;;;;;;10370787;28;20490;-63
2023/08/23 08:30:39;;;;;;;12.63;8.55;;;;;;;;;;10371301;28;20079;-63
2023/08/23 08:35:49;;;;;;;8.95;7.38;;;;;;;;;;10370584;28;20113;-63
2023/08/23 08:40:47;;;;;;;13.63;7.82;;;;;;;;;;10372702;28;20472;-63
2023/08/23 08:45:46;;;;;;;11.75;8.10;;;;;;;;;;10356282;28;20075;-62
2023/08/23 08:50:46;;;;;;;10.10;7.40;;;;;;;;;;10373548;28;20076;-63
2023/08/23 08:55:48;;;;;;;9.20;7.38;;;;;;;;;;10372653;28;20477;-62
2023/08/23 09:00:46;;;;;;;14.82;7.35;;;;;;;;;;10377416;28;20078;-63
2023/08/23 09:05:47;;;;;;;8.85;7.80;;;;;;;;;;10375842;28;20084;-62
2023/08/23 09:10:45;;;;;;;13.13;6.22;;;;;;;;;;10379190;28;20076;-63
2023/08/23 09:15:44;;;;;;;9.65;5.88;;;;;;;;;;10380043;28;20468;-63
2023/08/23 09:20:43;;;;;;;7.28;5.90;;;;;;;;;;10380382;28;20079;-62
2023/08/23 09:25:42;;;;;;;12.70;6.65;;;;;;;;;;10377408;28;20087;-62
2023/08/23 09:30:40;;;;;;;11.25;7.38;;;;;;;;;;10366695;27;20071;-64
2023/08/23 09:35:47;;;;;;;14.65;6.68;;;;;;;;;;10377932;28;20059;-63
2023/08/23 09:40:49;;;;;;;8.88;6.47;;;;;;;;;;10361585;28;20047;-63
2023/08/23 09:45:48;;;;;;;7.65;6.57;;;;;;;;;;10368782;28;20528;-63
2023/08/23 09:50:47;;;;;;;7.97;6.55;;;;;;;;;;10363503;28;20075;-62
2023/08/23 09:55:46;;;;;;;10.70;6.65;;;;;;;;;;10372552;28;20492;-62
2023/08/23 10:00:47;;;;;;;8.93;6.43;;;;;;;;;;10371291;28;20068;-62
2023/08/23 10:05:46;;;;;;;10.30;6.70;;;;;;;;;;10375231;28;20113;-62
2023/08/23 10:10:44;;;;;;;10.70;6.00;;;;;;;;;;10367168;28;20071;-62
2023/08/23 10:15:42;;;;;;;7.00;6.22;;;;;;;;;;10374885;27;20468;-62
2023/08/23 10:20:43;;;;;;;6.78;6.10;;;;;;;;;;10376533;28;20109;-62
2023/08/23 10:25:42;;;;;;;7.03;5.03;;;;;;;;;;10379330;28;20090;-62
2023/08/23 10:30:41;;;;;;;10.85;6.15;;;;;;;;;;10373083;28;20180;-63
2023/08/23 10:35:40;;;;;;;6.88;5.10;;;;;;;;;;10368684;28;20074;-62
2023/08/23 10:40:40;;;;;;;7.95;5.47;;;;;;;;;;10371229;28;20097;-62
2023/08/23 10:45:51;;;;;;;8.25;5.55;;;;;;;;;;10366278;28;20073;-62
2023/08/23 10:50:50;;;;;;;7.20;5.72;;;;;;;;;;10362133;28;20071;-62
2023/08/23 10:55:50;;;;;;;6.32;5.53;;;;;;;;;;10365797;28;20064;-63
2023/08/23 11:00:50;;;;;;;5.90;5.40;;;;;;;;;;10372047;28;20076;-63
2023/08/23 11:05:49;;;;;;;9.32;5.75;;;;;;;;;;10368013;27;20071;-63
2023/08/23 11:10:48;;;;;;;6.05;5.30;;;;;;;;;;10365000;28;20067;-64
2023/08/23 11:15:47;;;;;;;8.35;6.55;;;;;;;;;;10376074;28;20089;-64
2023/08/23 11:20:46;;;;;;;8.52;5.75;;;;;;;;;;10370094;28;20067;-63
2023/08/23 11:25:45;;;;;;;6.03;5.22;;;;;;;;;;10372327;28;20095;-62
2023/08/23 11:30:43;;;;;;;6.63;5.97;;;;;;;;;;10374014;28;20055;-63
2023/08/23 11:35:42;;;;;;;8.57;5.60;;;;;;;;;;10370484;28;20528;-63
2023/08/23 11:40:41;;;;;;;10.32;6.10;;;;;;;;;;10375881;28;20067;-63
2023/08/23 11:45:39;;;;;;;12.93;6.35;;;;;;;;;;10372741;28;20477;-62
2023/08/23 11:50:38;;;;;;;10.70;5.88;;;;;;;;;;10366198;28;20056;-63
2023/08/23 11:55:40;;;;;;;8.10;5.80;;;;;;;;;;10368397;28;20059;-64
2023/08/23 12:00:38;;;;;;;9.68;5.88;;;;;;;;;;10357938;28;20102;-62
2023/08/23 12:05:37;;;;;;;7.25;6.35;;;;;;;;;;10352445;28;20074;-63
2023/08/23 12:10:35;;;;;;;9.93;6.43;;;;;;;;;;10353556;28;20185;-63
2023/08/23 12:15:35;;;;;;;7.20;6.03;;;;;;;;;;10348564;28;20068;-62
2023/08/23 12:20:33;;;;;;;8.70;6.35;;;;;;;;;;10347816;28;20071;-63
2023/08/23 12:25:32;;;;;;;6.47;5.97;;;;;;;;;;10349017;28;20086;-62
2023/08/23 12:30:31;;;;;;;6.68;5.57;;;;;;;;;;10362659;28;20098;-62
2023/08/23 12:35:33;;;;;;;6.38;5.65;;;;;;;;;;10352373;28;20485;-62
2023/08/23 12:40:32;;;;;;;10.23;6.30;;;;;;;;;;10354581;28;20489;-63
2023/08/23 12:45:31;;;;;;;6.82;6.03;;;;;;;;;;10351714;28;20067;-63
2023/08/23 12:50:31;;;;;;;9.40;5.95;;;;;;;;;;10353753;28;20091;-63
2023/08/23 12:55:29;;;;;;;10.38;6.00;;;;;;;;;;10354490;28;20067;-63
2023/08/23 13:00:32;;;;;;;6.75;5.50;;;;;;;;;;10354727;28;20087;-63
2023/08/23 13:05:32;;;;;;;6.65;4.65;;;;;;;;;;10353458;28;20485;-62
2023/08/23 13:10:30;;;;;;;7.22;4.80;;;;;;;;;;10353471;28;20064;-61
2023/08/23 13:15:29;;;;;;;5.50;4.95;;;;;;;;;;10354137;28;20471;-62
2023/08/23 13:20:27;;;;;;;5.78;5.25;;;;;;;;;;10353697;28;20076;-62
2023/08/23 13:25:26;;;;;;;7.93;5.65;;;;;;;;;;10353824;28;20518;-63
2023/08/23 13:30:26;;;;;;;7.47;5.75;;;;;;;;;;10354735;28;20489;-62
2023/08/23 13:35:24;;;;;;;9.05;5.53;;;;;;;;;;10353590;28;20068;-62
2023/08/23 13:40:23;;;;;;;12.32;5.22;;;;;;;;;;10353835;28;20060;-61
2023/08/23 13:45:22;;;;;;;8.57;4.90;;;;;;;;;;10360129;28;20071;-61
2023/08/23 13:50:21;;;;;;;10.70;5.90;;;;;;;;;;10361592;28;20094;-62
2023/08/23 13:55:19;;;;;;;16.35;6.95;;;;;;;;;;10360574;28;20078;-62
2023/08/23 14:00:18;;;;;;;8.18;4.82;;;;;;;;;;10360826;28;20071;-64
2023/08/23 14:05:18;;;;;;;10.68;5.95;;;;;;;;;;10360624;28;20110;-63
2023/08/23 14:10:17;;;;;;;8.65;6.32;;;;;;;;;;10360293;28;20079;-63
2023/08/23 14:15:15;;;;;;;12.98;6.70;;;;;;;;;;10359676;28;20074;-63
2023/08/23 14:20:13;;;;;;;10.52;6.72;;;;;;;;;;10359687;28;20426;-62
2023/08/23 14:25:13;;;;;;;5.45;5.00;;;;;;;;;;10359578;28;20072;-63
2023/08/23 14:30:12;;;;;;;7.45;5.55;;;;;;;;;;10359609;28;20078;-65
2023/08/23 14:35:10;;;;;;;10.80;6.35;;;;;;;;;;10361699;28;20472;-63
2023/08/23 14:40:10;;;;;;;6.80;4.95;;;;;;;;;;10359262;28;20505;-62
2023/08/23 14:45:10;;;;;;;10.32;5.50;;;;;;;;;;10346094;28;20075;-63
2023/08/23 14:50:09;;;;;;;7.63;5.55;;;;;;;;;;10341907;28;20067;-63
2023/08/23 14:55:08;;;;;;;8.38;6.00;;;;;;;;;;10330260;28;20068;-62
2023/08/23 15:00:07;;;;;;;12.20;5.20;;;;;;;;;;10355075;28;20544;-62
2023/08/23 15:05:07;;;;;;;16.92;5.75;;;;;;;;;;10357544;28;20079;-62
2023/08/23 15:10:06;;;;;;;10.00;5.75;;;;;;;;;;10358445;28;20083;-63
2023/08/23 15:15:05;;;;;;;15.35;6.70;;;;;;;;;;10345581;28;20493;-63
2023/08/23 15:20:04;;;;;;;8.00;5.63;;;;;;;;;;10354829;28;20075;-63
2023/08/23 15:25:05;;;;;;;7.45;6.63;;;;;;;;;;10352569;28;20082;-63
2023/08/23 15:30:03;;;;;;;9.35;7.53;;;;;;;;;;10353719;28;20067;-63
2023/08/23 15:35:10;;;;;;;8.50;5.85;;;;;;;;;;10350872;28;20070;-63
2023/08/23 15:40:10;;;;;;;16.25;8.20;;;;;;;;;;10345054;28;20109;-63
2023/08/23 15:45:09;;;;;;;11.13;5.82;;;;;;;;;;10348895;28;20075;-63
2023/08/23 15:50:09;;;;;;;11.60;10.40;;;;;;;;;;10347075;28;20078;-63
2023/08/23 15:55:10;;;;;;;31.70;10.57;;;;;;;;;;10352253;28;20501;-62
2023/08/23 16:00:09;;;;;;;20.52;8.45;;;;;;;;;;10351168;28;20080;-63
2023/08/23 16:05:12;;;;;;;13.57;10.45;;;;;;;;;;10352399;28;20078;-62
2023/08/23 16:10:12;;;;;;;33.38;29.77;;;;;;;;;;10341558;28;20076;-62
2023/08/23 16:15:10;;;;;;;13.65;12.23;;;;;;;;;;10348978;28;20067;-63
2023/08/23 16:20:09;;;;;;;27.70;21.85;;;;;;;;;;10353828;28;20075;-61
2023/08/23 16:25:08;;;;;;;22.75;20.33;;;;;;;;;;10352981;28;20083;-62
2023/08/23 16:30:09;;;;;;;28.58;22.92;;;;;;;;;;10341542;28;20072;-62
2023/08/23 16:35:08;;;;;;;15.77;12.98;;;;;;;;;;10352914;28;20083;-63
2023/08/23 16:40:07;;;;;;;126.65;113.13;;;;;;;;;;10340407;28;20071;-63
2023/08/23 16:45:06;;;;;;;128.05;115.05;;;;;;;;;;10341830;28;20544;-62
2023/08/23 16:50:07;;;;;;;82.22;73.53;;;;;;;;;;10339034;28;20484;-63
2023/08/23 16:55:06;;;;;;;31.20;23.75;;;;;;;;;;10353151;28;20076;-63
2023/08/23 17:00:08;;;;;;;28.80;15.88;;;;;;;;;;10351514;28;20075;-63
2023/08/23 17:05:09;;;;;;;21.92;12.43;;;;;;;;;;10351552;28;20109;-62
2023/08/23 17:10:07;;;;;;;17.70;11.18;;;;;;;;;;10343288;28;20072;-61
2023/08/23 17:15:07;;;;;;;24.35;17.58;;;;;;;;;;10337190;28;20072;-62
2023/08/23 17:20:06;;;;;;;14.30;11.00;;;;;;;;;;10360380;28;20075;-62
2023/08/23 17:25:06;;;;;;;13.48;10.20;;;;;;;;;;10354632;28;20088;-63
2023/08/23 17:30:05;;;;;;;22.17;19.90;;;;;;;;;;10344292;28;20071;-62
2023/08/23 17:35:04;;;;;;;28.02;11.40;;;;;;;;;;10359457;28;20498;-63
2023/08/23 17:40:03;;;;;;;24.10;10.25;;;;;;;;;;10356717;28;20079;-63
2023/08/23 17:45:03;;;;;;;13.98;10.43;;;;;;;;;;10349434;28;20072;-63
2023/08/23 17:50:01;;;;;;;12.43;8.30;;;;;;;;;;10360092;28;20503;-62
2023/08/23 17:54:59;;;;;;;12.93;9.32;;;;;;;;;;10357212;28;20112;-62
2023/08/23 17:59:57;;;;;;;17.58;14.90;;;;;;;;;;10362493;28;20072;-62
2023/08/23 18:04:57;;;;;;;12.65;10.02;;;;;;;;;;10354702;28;20083;-62
2023/08/23 18:09:59;;;;;;;10.95;9.25;;;;;;;;;;10356439;28;20079;-62
2023/08/23 18:14:58;;;;;;;10.50;6.80;;;;;;;;;;10356706;28;20094;-62
2023/08/23 18:19:58;;;;;;;15.30;7.45;;;;;;;;;;10352957;28;20068;-63
2023/08/23 18:24:56;;;;;;;9.02;7.03;;;;;;;;;;10350828;28;20080;-62
2023/08/23 18:29:54;;;;;;;8.25;6.20;;;;;;;;;;10339082;28;20351;-62
2023/08/23 18:34:54;;;;;;;12.80;8.38;;;;;;;;;;10364582;28;20134;-62
2023/08/23 18:39:53;;;;;;;13.70;7.05;;;;;;;;;;10350670;28;20072;-62
2023/08/23 18:44:52;;;;;;;9.57;6.53;;;;;;;;;;10352476;28;20482;-62
2023/08/23 18:49:50;;;;;;;11.23;6.70;;;;;;;;;;10352710;28;20071;-63
2023/08/23 18:54:48;;;;;;;14.65;6.75;;;;;;;;;;10355925;28;20505;-62
2023/08/23 18:59:48;;;;;;;11.93;6.05;;;;;;;;;;10347121;28;20059;-62
2023/08/23 19:04:46;;;;;;;12.30;6.13;;;;;;;;;;10343076;28;20453;-61
2023/08/23 19:09:44;;;;;;;10.05;5.75;;;;;;;;;;10352249;28;20064;-63
2023/08/23 19:14:42;;;;;;;14.27;7.03;;;;;;;;;;10349911;28;20090;-62
2023/08/23 19:19:45;;;;;;;15.23;7.85;;;;;;;;;;10348893;28;20529;-62
2023/08/23 19:24:43;;;;;;;25.80;8.57;;;;;;;;;;10355057;28;20106;-62
2023/08/23 19:29:41;;;;;;;11.75;9.15;;;;;;;;;;10353876;28;20064;-63
2023/08/23 19:34:40;;;;;;;16.15;8.35;;;;;;;;;;10369928;28;20065;-62
2023/08/23 19:39:39;;;;;;;15.00;10.68;;;;;;;;;;10352144;28;20075;-62
2023/08/23 19:44:39;;;;;;;11.65;7.20;;;;;;;;;;10350964;28;20076;-62
2023/08/23 19:49:38;;;;;;;17.10;10.23;;;;;;;;;;10355762;28;20480;-61
2023/08/23 19:54:38;;;;;;;12.63;7.88;;;;;;;;;;10355819;28;20073;-61
2023/08/23 19:59:38;;;;;;;12.27;8.55;;;;;;;;;;10341964;28;20083;-61
2023/08/23 20:04:36;;;;;;;10.07;7.75;;;;;;;;;;10368258;28;20074;-62
2023/08/23 20:09:34;;;;;;;16.75;9.77;;;;;;;;;;10361549;28;20481;-62
2023/08/23 20:14:33;;;;;;;10.48;7.63;;;;;;;;;;10354546;28;20454;-61
2023/08/23 20:19:32;;;;;;;8.68;7.70;;;;;;;;;;10354779;28;20075;-61
2023/08/23 20:24:31;;;;;;;9.35;6.65;;;;;;;;;;10351013;28;20091;-60
2023/08/23 20:29:29;;;;;;;10.50;7.63;;;;;;;;;;10349922;28;20075;-60
2023/08/23 20:34:28;;;;;;;12.73;6.05;;;;;;;;;;10352212;28;20071;-62
2023/08/23 20:39:27;;;;;;;8.13;6.47;;;;;;;;;;10354721;28;20078;-61
2023/08/23 20:44:25;;;;;;;8.93;7.28;;;;;;;;;;10354082;28;20496;-61
2023/08/23 20:49:24;;;;;;;11.32;7.22;;;;;;;;;;10354470;28;20487;-61
2023/08/23 20:54:22;;;;;;;10.05;7.68;;;;;;;;;;10353216;28;20072;-61
2023/08/23 20:59:22;;;;;;;14.57;7.78;;;;;;;;;;10354090;28;20079;-61
2023/08/23 21:04:20;;;;;;;13.88;7.97;;;;;;;;;;10366811;28;20528;-61
2023/08/23 21:09:19;;;;;;;9.57;7.03;;;;;;;;;;10358420;28;20075;-61
2023/08/23 21:14:17;;;;;;;8.15;7.35;;;;;;;;;;10360805;28;20082;-60
2023/08/23 21:19:17;;;;;;;12.65;7.03;;;;;;;;;;10353489;28;20068;-61
2023/08/23 21:24:15;;;;;;;10.60;7.65;;;;;;;;;;10353294;28;20520;-61
2023/08/23 21:29:13;;;;;;;9.27;6.53;;;;;;;;;;10348556;28;20075;-62
2023/08/23 21:34:12;;;;;;;13.30;7.18;;;;;;;;;;10353009;28;20068;-61
2023/08/23 21:39:13;;;;;;;11.30;7.28;;;;;;;;;;10353462;28;20060;-61
2023/08/23 21:44:12;;;;;;;8.77;6.20;;;;;;;;;;10353501;28;20072;-61
2023/08/23 21:49:10;;;;;;;13.82;5.78;;;;;;;;;;10340473;28;20071;-61
2023/08/23 21:54:08;;;;;;;10.20;6.45;;;;;;;;;;10352369;28;20075;-61
2023/08/23 21:59:08;;;;;;;18.33;6.90;;;;;;;;;;10366312;28;20063;-61
2023/08/23 22:04:07;;;;;;;9.00;6.20;;;;;;;;;;10354809;28;20075;-61
2023/08/23 22:09:05;;;;;;;8.88;6.72;;;;;;;;;;10366576;28;20071;-60
2023/08/23 22:14:03;;;;;;;7.93;6.93;;;;;;;;;;10359756;28;20060;-60
2023/08/23 22:19:03;;;;;;;15.07;7.28;;;;;;;;;;10359807;28;20075;-60
2023/08/23 22:24:05;;;;;;;11.20;8.07;;;;;;;;;;10359118;28;20085;-61
2023/08/23 22:29:05;;;;;;;11.73;7.75;;;;;;;;;;10358266;28;20407;-62
2023/08/23 22:34:05;;;;;;;7.50;6.70;;;;;;;;;;10340654;28;20047;-63
2023/08/23 22:39:04;;;;;;;7.75;7.03;;;;;;;;;;10358404;28;20079;-62
2023/08/23 22:44:02;;;;;;;8.73;6.70;;;;;;;;;;10359029;28;20070;-62
2023/08/23 22:49:00;;;;;;;12.23;6.78;;;;;;;;;;10357337;28;20080;-62
2023/08/23 22:54:00;;;;;;;9.48;6.68;;;;;;;;;;10355450;28;20067;-62
2023/08/23 22:58:58;;;;;;;8.20;7.15;;;;;;;;;;10356406;28;20075;-62
2023/08/23 23:03:56;;;;;;;8.90;6.78;;;;;;;;;;10358684;28;20457;-62
2023/08/23 23:08:55;;;;;;;17.20;8.65;;;;;;;;;;10353487;28;20110;-62
2023/08/23 23:13:54;;;;;;;11.05;7.40;;;;;;;;;;10357035;28;20083;-61
2023/08/23 23:18:53;;;;;;;11.95;7.60;;;;;;;;;;10357827;28;20067;-62
2023/08/23 23:23:53;;;;;;;10.20;6.53;;;;;;;;;;10357260;28;20087;-62
2023/08/23 23:28:51;;;;;;;11.73;7.00;;;;;;;;;;10357320;28;20076;-63
2023/08/23 23:33:51;;;;;;;9.10;6.80;;;;;;;;;;10357622;28;20067;-62
2023/08/23 23:38:49;;;;;;;10.15;6.93;;;;;;;;;;10357393;28;20067;-62
2023/08/23 23:43:48;;;;;;;11.60;7.15;;;;;;;;;;10352787;28;20072;-62
2023/08/23 23:48:46;;;;;;;13.38;7.25;;;;;;;;;;10356630;28;20083;-62
2023/08/23 23:53:46;;;;;;;13.68;7.35;;;;;;;;;;10356734;28;20411;-63
2023/08/23 23:58:44;;;;;;;9.15;6.30;;;;;;;;;;10355423;28;20433;-63
